createdAt,value
2018-07-15T00:00:29.235Z,18.26
2018-07-15T00:02:57.533Z,18.30
2018-07-15T00:05:25.905Z,18.32
2018-07-15T00:07:54.244Z,18.28
2018-07-15T00:10:22.654Z,18.21
2018-07-15T00:12:51.059Z,18.08
2018-07-15T00:15:19.387Z,17.97
2018-07-15T00:17:47.699Z,17.86
2018-07-15T00:20:16.085Z,17.76
2018-07-15T00:22:44.381Z,17.69
2018-07-15T00:25:12.759Z,17.59
2018-07-15T00:27:41.129Z,17.53
2018-07-15T00:30:09.462Z,17.52
2018-07-15T00:32:37.767Z,17.48
2018-07-15T00:35:06.112Z,17.42
2018-07-15T00:37:34.412Z,17.36
2018-07-15T00:40:02.824Z,17.30
2018-07-15T00:42:31.197Z,17.23
2018-07-15T00:44:59.507Z,17.19
2018-07-15T00:47:27.955Z,17.18
2018-07-15T00:49:56.278Z,17.16
2018-07-15T00:52:24.610Z,17.19
2018-07-15T00:54:52.953Z,17.25
2018-07-15T00:57:21.364Z,17.31
2018-07-15T00:59:49.694Z,17.37
2018-07-15T01:02:18.064Z,17.40
2018-07-15T01:04:46.387Z,17.40
2018-07-15T01:07:14.704Z,17.40
2018-07-15T01:09:43.037Z,17.39
2018-07-15T01:12:11.365Z,17.37
2018-07-15T01:14:39.698Z,17.35
2018-07-15T01:17:08.108Z,17.31
2018-07-15T01:19:36.574Z,17.27
2018-07-15T01:22:04.915Z,17.19
2018-07-15T01:24:33.256Z,17.16
2018-07-15T01:27:01.569Z,17.15
2018-07-15T01:29:29.908Z,17.16
2018-07-15T01:31:58.276Z,17.15
2018-07-15T01:34:26.577Z,17.15
2018-07-15T01:36:54.896Z,17.12
2018-07-15T01:39:23.234Z,17.11
2018-07-15T01:41:51.524Z,17.12
2018-07-15T01:44:19.953Z,17.10
2018-07-15T01:46:48.278Z,17.05
2018-07-15T01:49:16.577Z,17.04
2018-07-15T01:51:44.954Z,17.03
2018-07-15T01:54:13.322Z,17.03
2018-07-15T01:56:41.660Z,17.04
2018-07-15T01:59:09.991Z,17.06
2018-07-15T02:01:38.322Z,17.05
2018-07-15T02:04:06.693Z,17.05
2018-07-15T02:06:35.004Z,17.02
2018-07-15T02:09:03.518Z,17.00
2018-07-15T02:11:31.849Z,16.97
2018-07-15T02:14:00.190Z,16.90
2018-07-15T02:16:28.531Z,16.78
2018-07-15T02:18:56.890Z,16.70
2018-07-15T02:21:25.201Z,16.62
2018-07-15T02:23:53.497Z,16.53
2018-07-15T02:26:22.035Z,16.49
2018-07-15T02:28:50.393Z,16.47
2018-07-15T02:31:18.787Z,16.42
2018-07-15T02:33:47.161Z,16.36
2018-07-15T02:36:15.573Z,16.35
2018-07-15T02:38:43.923Z,16.42
2018-07-15T02:41:12.292Z,16.48
2018-07-15T02:43:40.628Z,16.49
2018-07-15T02:46:09.176Z,16.46
2018-07-15T02:48:37.501Z,16.38
2018-07-15T02:51:05.869Z,16.29
2018-07-15T02:53:34.219Z,16.20
2018-07-15T02:56:02.544Z,16.12
2018-07-15T02:58:30.889Z,16.06
2018-07-15T03:00:59.212Z,15.99
2018-07-15T03:03:27.546Z,15.93
2018-07-15T03:05:55.900Z,15.88
2018-07-15T03:08:24.243Z,15.82
2018-07-15T03:10:52.591Z,15.79
2018-07-15T03:13:20.979Z,15.77
2018-07-15T03:15:49.319Z,15.79
2018-07-15T03:18:17.671Z,15.87
2018-07-15T03:20:46.144Z,15.90
2018-07-15T03:23:14.525Z,15.91
2018-07-15T03:25:42.864Z,15.89
2018-07-15T03:28:11.240Z,15.93
2018-07-15T03:30:39.581Z,15.92
2018-07-15T03:33:07.909Z,15.87
2018-07-15T03:35:36.480Z,15.82
2018-07-15T03:38:04.932Z,15.77
2018-07-15T03:40:33.272Z,15.72
2018-07-15T03:43:01.630Z,15.69
2018-07-15T03:45:30.063Z,15.68
2018-07-15T03:47:58.421Z,15.71
2018-07-15T03:50:26.817Z,15.77
2018-07-15T03:52:55.144Z,15.90
2018-07-15T03:55:23.491Z,16.10
2018-07-15T03:57:51.829Z,16.25
2018-07-15T04:00:20.214Z,16.28
2018-07-15T04:02:48.545Z,16.28
2018-07-15T04:05:17.002Z,16.28
2018-07-15T04:07:45.321Z,16.32
2018-07-15T04:10:13.692Z,16.65
2018-07-15T04:12:42.036Z,17.36
2018-07-15T04:15:10.371Z,18.20
2018-07-15T04:17:38.711Z,18.93
2018-07-15T04:20:07.060Z,19.58
2018-07-15T04:22:35.438Z,20.40
2018-07-15T04:25:03.781Z,21.18
2018-07-15T04:27:32.112Z,21.91
2018-07-15T04:30:00.445Z,22.38
2018-07-15T04:32:28.798Z,22.91
2018-07-15T04:34:57.111Z,23.42
2018-07-15T04:37:25.460Z,23.82
2018-07-15T04:39:53.777Z,24.20
2018-07-15T04:42:22.109Z,24.62
2018-07-15T04:44:50.424Z,24.91
2018-07-15T04:47:18.772Z,25.22
2018-07-15T04:49:47.057Z,25.55
2018-07-15T04:52:15.380Z,25.76
2018-07-15T04:54:43.760Z,26.04
2018-07-15T04:57:12.057Z,26.19
2018-07-15T04:59:40.389Z,26.19
2018-07-15T05:02:08.751Z,26.22
2018-07-15T05:04:37.167Z,26.44
2018-07-15T05:07:05.502Z,26.73
2018-07-15T05:09:33.805Z,27.06
2018-07-15T05:12:02.145Z,27.15
2018-07-15T05:14:30.469Z,27.24
2018-07-15T05:16:58.822Z,27.19
2018-07-15T05:19:28.007Z,27.47
2018-07-15T05:21:56.344Z,27.72
2018-07-15T05:24:24.669Z,27.88
2018-07-15T05:26:53.220Z,28.00
2018-07-15T05:29:21.770Z,27.98
2018-07-15T05:31:50.102Z,27.96
2018-07-15T05:34:18.546Z,28.20
2018-07-15T05:36:46.948Z,28.33
2018-07-15T05:39:15.300Z,28.34
2018-07-15T05:41:43.630Z,28.29
2018-07-15T05:44:12.032Z,28.55
2018-07-15T05:46:40.319Z,28.49
2018-07-15T05:49:08.669Z,28.23
2018-07-15T05:51:37.041Z,28.11
2018-07-15T05:54:05.407Z,28.00
2018-07-15T05:56:33.728Z,27.87
2018-07-15T05:59:02.117Z,27.55
2018-07-15T06:01:30.457Z,27.14
2018-07-15T06:03:58.781Z,26.44
2018-07-15T06:06:27.151Z,25.84
2018-07-15T06:08:55.443Z,25.29
2018-07-15T06:11:23.880Z,24.70
2018-07-15T06:13:52.224Z,24.27
2018-07-15T06:16:20.562Z,23.99
2018-07-15T06:18:48.923Z,23.73
2018-07-15T06:21:17.219Z,23.60
2018-07-15T06:23:45.561Z,23.44
2018-07-15T06:26:13.913Z,23.37
2018-07-15T06:28:42.302Z,23.54
2018-07-15T06:31:10.620Z,23.35
2018-07-15T06:33:38.939Z,22.83
2018-07-15T06:36:07.249Z,22.46
2018-07-15T06:38:35.604Z,22.38
2018-07-15T06:41:04.005Z,22.38
2018-07-15T06:43:32.331Z,22.38
2018-07-15T06:46:00.656Z,22.37
2018-07-15T06:48:28.993Z,22.22
2018-07-15T06:50:57.431Z,22.14
2018-07-15T06:53:25.872Z,22.07
2018-07-15T06:55:54.203Z,22.03
2018-07-15T06:58:22.732Z,22.01
2018-07-15T07:00:51.167Z,22.01
2018-07-15T07:03:20.045Z,22.06
2018-07-15T07:05:48.449Z,22.13
2018-07-15T07:08:16.862Z,22.16
2018-07-15T07:10:45.188Z,22.23
2018-07-15T07:13:13.597Z,22.25
2018-07-15T07:15:41.940Z,22.18
2018-07-15T07:18:10.353Z,22.14
2018-07-15T07:20:38.731Z,22.29
2018-07-15T07:23:07.172Z,22.27
2018-07-15T07:25:35.710Z,22.22
2018-07-15T07:28:04.063Z,22.19
2018-07-15T07:30:32.776Z,22.21
2018-07-15T07:33:01.144Z,22.28
2018-07-15T07:35:29.507Z,22.28
2018-07-15T07:37:57.974Z,22.26
2018-07-15T07:40:26.319Z,22.23
2018-07-15T07:42:54.795Z,22.04
2018-07-15T07:45:23.138Z,21.92
2018-07-15T07:47:51.472Z,21.89
2018-07-15T07:50:20.001Z,21.91
2018-07-15T07:52:48.326Z,21.88
2018-07-15T07:55:16.643Z,21.96
2018-07-15T07:57:44.970Z,21.97
2018-07-15T08:00:13.308Z,22.04
2018-07-15T08:02:41.687Z,22.05
2018-07-15T08:05:10.013Z,22.01
2018-07-15T08:07:38.429Z,22.00
2018-07-15T08:10:06.714Z,21.90
2018-07-15T08:12:35.056Z,21.90
2018-07-15T08:15:03.404Z,21.98
2018-07-15T08:17:31.743Z,22.22
2018-07-15T08:20:00.154Z,22.35
2018-07-15T08:22:28.533Z,22.34
2018-07-15T08:24:56.823Z,22.27
2018-07-15T08:27:25.157Z,22.21
2018-07-15T08:31:04.619Z,22.22
2018-07-15T08:33:33.020Z,22.39
2018-07-15T08:36:01.385Z,22.58
2018-07-15T08:38:29.800Z,22.58
2018-07-15T08:40:58.155Z,22.54
2018-07-15T08:43:27.214Z,22.52
2018-07-15T08:45:55.581Z,22.49
2018-07-15T08:48:24.068Z,22.52
2018-07-15T08:50:52.394Z,22.55
2018-07-15T08:53:20.887Z,22.54
2018-07-15T08:55:49.244Z,22.53
2018-07-15T08:58:17.576Z,22.55
2018-07-15T09:00:46.091Z,22.54
2018-07-15T09:03:14.428Z,22.54
2018-07-15T09:05:42.769Z,22.56
2018-07-15T09:08:11.094Z,22.59
2018-07-15T09:10:39.452Z,22.77
2018-07-15T09:13:07.781Z,22.88
2018-07-15T09:15:36.157Z,22.90
2018-07-15T09:18:04.586Z,23.01
2018-07-15T09:20:32.943Z,23.09
2018-07-15T09:23:01.342Z,23.00
2018-07-15T09:25:29.704Z,22.96
2018-07-15T09:27:58.055Z,23.00
2018-07-15T09:30:26.338Z,23.13
2018-07-15T09:32:55.103Z,23.27
2018-07-15T09:35:23.454Z,23.24
2018-07-15T09:37:51.882Z,23.23
2018-07-15T09:40:20.282Z,23.19
2018-07-15T09:42:48.626Z,23.15
2018-07-15T09:45:17.120Z,23.23
2018-07-15T09:47:45.445Z,23.36
2018-07-15T09:50:13.860Z,23.52
2018-07-15T09:52:42.287Z,23.64
2018-07-15T09:55:10.784Z,23.57
2018-07-15T09:57:39.385Z,23.44
2018-07-15T10:00:08.708Z,23.40
2018-07-15T10:02:37.089Z,23.44
2018-07-15T10:05:05.401Z,23.41
2018-07-15T10:07:33.837Z,23.44
2018-07-15T10:10:02.127Z,23.52
2018-07-15T10:12:30.422Z,23.56
2018-07-15T10:14:58.712Z,23.61
2018-07-15T10:17:27.026Z,23.70
2018-07-15T10:19:55.385Z,23.77
2018-07-15T10:22:23.712Z,23.84
2018-07-15T10:24:52.038Z,23.83
2018-07-15T10:27:20.363Z,23.82
2018-07-15T10:29:48.693Z,23.88
2018-07-15T10:32:17.052Z,23.90
2018-07-15T10:34:45.401Z,23.92
2018-07-15T10:37:13.713Z,23.89
2018-07-15T10:39:42.123Z,23.91
2018-07-15T10:42:10.416Z,23.93
2018-07-15T10:44:38.809Z,24.05
2018-07-15T10:47:07.098Z,24.15
2018-07-15T10:49:35.426Z,24.23
2018-07-15T10:52:03.698Z,24.24
2018-07-15T10:54:32.105Z,24.27
2018-07-15T10:57:00.445Z,24.32
2018-07-15T10:59:28.756Z,24.44
2018-07-15T11:01:57.078Z,24.46
2018-07-15T11:04:25.373Z,24.42
2018-07-15T11:06:53.710Z,24.40
2018-07-15T11:09:22.022Z,24.43
2018-07-15T11:11:50.350Z,24.41
2018-07-15T11:14:18.762Z,24.52
2018-07-15T11:16:47.077Z,24.65
2018-07-15T11:19:15.383Z,24.68
2018-07-15T11:21:43.691Z,24.71
2018-07-15T11:24:12.039Z,24.65
2018-07-15T11:26:40.356Z,24.64
2018-07-15T11:29:08.727Z,24.70
2018-07-15T11:31:37.109Z,24.83
2018-07-15T11:34:05.588Z,24.91
2018-07-15T11:36:33.948Z,24.97
2018-07-15T11:39:02.358Z,25.05
2018-07-15T11:41:30.666Z,25.11
2018-07-15T11:43:59.000Z,25.10
2018-07-15T11:46:27.507Z,24.97
2018-07-15T11:48:55.947Z,24.89
2018-07-15T11:51:24.273Z,25.00
2018-07-15T11:53:52.616Z,25.10
2018-07-15T11:56:20.949Z,25.22
2018-07-15T11:58:49.293Z,25.17
2018-07-15T12:01:17.650Z,25.17
2018-07-15T12:03:46.897Z,25.18
2018-07-15T12:06:15.230Z,25.28
2018-07-15T12:08:43.630Z,25.33
2018-07-15T12:11:12.053Z,25.34
2018-07-15T12:13:40.286Z,25.36
2018-07-15T12:16:08.623Z,25.50
2018-07-15T12:18:36.986Z,25.55
2018-07-15T12:21:05.259Z,25.57
2018-07-15T12:23:33.574Z,25.56
2018-07-15T12:26:01.930Z,25.58
2018-07-15T12:28:30.254Z,25.59
2018-07-15T12:30:58.563Z,25.51
2018-07-15T12:33:26.902Z,25.44
2018-07-15T12:35:55.202Z,25.40
2018-07-15T12:38:23.604Z,25.43
2018-07-15T12:40:51.906Z,25.48
2018-07-15T12:43:20.275Z,25.53
2018-07-15T12:45:49.579Z,25.48
2018-07-15T12:48:17.876Z,25.49
2018-07-15T12:50:46.244Z,25.52
2018-07-15T12:53:14.569Z,25.57
2018-07-15T12:55:42.929Z,25.62
2018-07-15T12:58:11.241Z,25.71
2018-07-15T13:00:39.619Z,25.73
2018-07-15T13:03:08.161Z,25.79
2018-07-15T13:05:36.486Z,25.83
2018-07-15T13:08:04.793Z,25.87
2018-07-15T13:10:33.126Z,25.84
2018-07-15T13:13:03.560Z,25.85
2018-07-15T13:15:31.932Z,25.89
2018-07-15T13:18:00.225Z,25.98
2018-07-15T13:20:29.537Z,25.94
2018-07-15T13:22:57.857Z,25.95
2018-07-15T13:25:26.216Z,25.91
2018-07-15T13:27:54.540Z,25.96
2018-07-15T13:30:22.900Z,25.93
2018-07-15T13:32:51.199Z,25.90
2018-07-15T13:35:19.522Z,25.83
2018-07-15T13:37:47.961Z,25.89
2018-07-15T13:40:16.303Z,25.97
2018-07-15T13:42:44.598Z,25.96
2018-07-15T13:45:12.922Z,25.94
2018-07-15T13:47:41.263Z,25.94
2018-07-15T13:50:09.608Z,26.00
2018-07-15T13:52:37.933Z,26.10
2018-07-15T13:55:06.395Z,26.13
2018-07-15T13:57:34.712Z,26.21
2018-07-15T14:00:03.316Z,26.23
2018-07-15T14:02:31.708Z,26.24
2018-07-15T14:04:59.999Z,26.24
2018-07-15T14:07:28.352Z,26.20
2018-07-15T14:09:56.711Z,26.20
2018-07-15T14:12:25.090Z,26.15
2018-07-15T14:14:53.404Z,26.03
2018-07-15T14:17:21.747Z,26.08
2018-07-15T14:19:50.070Z,26.21
2018-07-15T14:22:18.404Z,26.22
2018-07-15T14:24:46.772Z,26.27
2018-07-15T14:27:15.076Z,26.31
2018-07-15T14:29:43.375Z,26.32
2018-07-15T14:32:11.655Z,26.37
2018-07-15T14:34:39.972Z,26.36
2018-07-15T14:37:08.295Z,26.32
2018-07-15T14:39:40.017Z,26.40
2018-07-15T14:42:08.409Z,26.40
2018-07-15T14:44:38.359Z,26.42
2018-07-15T14:47:07.105Z,26.44
2018-07-15T14:49:35.635Z,26.50
2018-07-15T14:52:03.959Z,26.46
2018-07-15T14:54:32.295Z,26.45
2018-07-15T14:57:00.715Z,26.44
2018-07-15T14:59:29.013Z,26.41
2018-07-15T15:01:57.439Z,26.37
2018-07-15T15:04:25.743Z,26.42
2018-07-15T15:06:54.081Z,26.46
2018-07-15T15:09:22.660Z,26.45
2018-07-15T15:11:50.954Z,26.51
2018-07-15T15:14:19.307Z,26.57
2018-07-15T15:16:47.644Z,26.58
2018-07-15T15:19:16.064Z,26.57
2018-07-15T15:21:44.412Z,26.56
2018-07-15T15:24:12.779Z,26.55
2018-07-15T15:26:41.093Z,26.53
2018-07-15T15:29:09.449Z,26.46
2018-07-15T15:31:37.766Z,26.44
2018-07-15T15:34:06.095Z,26.37
2018-07-15T15:36:34.433Z,26.36
2018-07-15T15:39:02.798Z,26.37
2018-07-15T15:41:31.124Z,26.38
2018-07-15T15:43:59.558Z,26.43
2018-07-15T15:46:27.909Z,26.47
2018-07-15T15:48:56.204Z,26.50
2018-07-15T15:51:24.580Z,26.49
2018-07-15T15:53:53.005Z,26.47
2018-07-15T15:56:21.322Z,26.47
2018-07-15T15:58:49.650Z,26.49
2018-07-15T16:01:17.953Z,26.46
2018-07-15T16:03:46.299Z,26.47
2018-07-15T16:06:14.636Z,26.48
2018-07-15T16:08:43.000Z,26.49
2018-07-15T16:11:11.295Z,26.49
2018-07-15T16:13:39.654Z,26.48
2018-07-15T16:16:08.172Z,26.44
2018-07-15T16:18:36.454Z,26.49
2018-07-15T16:21:04.782Z,26.50
2018-07-15T16:23:33.074Z,26.49
2018-07-15T16:26:01.468Z,26.46
2018-07-15T16:28:29.776Z,26.47
2018-07-15T16:30:58.126Z,26.47
2018-07-15T16:33:26.400Z,26.50
2018-07-15T16:35:54.751Z,26.47
2018-07-15T16:38:23.152Z,26.42
2018-07-15T16:40:51.480Z,26.40
2018-07-15T16:43:19.951Z,26.37
2018-07-15T16:45:48.274Z,26.34
2018-07-15T16:48:16.659Z,26.34
2018-07-15T16:50:44.977Z,26.31
2018-07-15T16:53:13.313Z,26.31
2018-07-15T16:55:41.627Z,26.30
2018-07-15T16:58:09.953Z,26.31
2018-07-15T17:00:38.300Z,26.30
2018-07-15T17:03:06.723Z,26.29
2018-07-15T17:05:35.056Z,26.29
2018-07-15T17:08:03.397Z,26.28
2018-07-15T17:10:31.713Z,26.26
2018-07-15T17:13:00.001Z,26.24
2018-07-15T17:15:28.323Z,26.23
2018-07-15T17:17:56.635Z,26.22
2018-07-15T17:20:25.000Z,26.23
2018-07-15T17:22:53.299Z,26.21
2018-07-15T17:25:21.618Z,26.16
2018-07-15T17:27:49.984Z,26.11
2018-07-15T17:30:18.297Z,26.09
2018-07-15T17:32:46.804Z,26.05
2018-07-15T17:35:15.152Z,26.03
2018-07-15T17:37:43.540Z,25.98
2018-07-15T17:40:11.882Z,25.95
2018-07-15T17:42:40.245Z,25.93
2018-07-15T17:45:08.636Z,25.88
2018-07-15T17:47:37.025Z,25.87
2018-07-15T17:50:05.343Z,25.84
2018-07-15T17:52:33.644Z,25.82
2018-07-15T17:55:02.042Z,25.78
2018-07-15T17:57:30.382Z,25.73
2018-07-15T17:59:58.650Z,25.65
2018-07-15T18:02:26.965Z,25.61
2018-07-15T18:04:55.276Z,25.58
2018-07-15T18:07:23.554Z,25.56
2018-07-15T18:09:51.861Z,25.51
2018-07-15T18:12:20.197Z,25.47
2018-07-15T18:14:48.590Z,25.43
2018-07-15T18:17:16.943Z,25.38
2018-07-15T18:19:45.603Z,25.34
2018-07-15T18:22:14.030Z,25.28
2018-07-15T18:24:42.558Z,25.25
2018-07-15T18:27:11.241Z,25.20
2018-07-15T18:29:39.547Z,25.14
2018-07-15T18:32:07.912Z,25.08
2018-07-15T18:34:36.362Z,25.05
2018-07-15T18:37:05.106Z,24.97
2018-07-15T18:39:33.443Z,24.93
2018-07-15T18:42:01.890Z,24.88
2018-07-15T18:44:30.239Z,24.85
2018-07-15T18:46:58.590Z,24.81
2018-07-15T18:49:26.897Z,24.79
2018-07-15T18:51:55.262Z,24.74
2018-07-15T18:54:23.660Z,24.69
2018-07-15T18:56:51.978Z,24.64
2018-07-15T18:59:20.299Z,24.59
2018-07-15T19:01:48.631Z,24.52
2018-07-15T19:04:17.008Z,24.45
2018-07-15T19:06:45.608Z,24.38
2018-07-15T19:09:13.967Z,24.33
2018-07-15T19:11:42.351Z,24.26
2018-07-15T19:14:10.687Z,24.20
2018-07-15T19:16:39.068Z,24.14
2018-07-15T19:19:07.604Z,24.10
2018-07-15T19:21:35.933Z,24.04
2018-07-15T19:24:04.282Z,23.98
2018-07-15T19:26:32.609Z,23.90
2018-07-15T19:29:01.058Z,23.83
2018-07-15T19:31:29.484Z,23.77
2018-07-15T19:33:58.082Z,23.71
2018-07-15T19:36:26.475Z,23.64
2018-07-15T19:38:54.994Z,23.57
2018-07-15T19:41:23.343Z,23.50
2018-07-15T19:43:51.692Z,23.43
2018-07-15T19:46:20.132Z,23.35
2018-07-15T19:48:48.475Z,23.28
2018-07-15T19:51:16.775Z,23.22
2018-07-15T19:53:45.142Z,23.16
2018-07-15T19:56:13.521Z,23.11
2018-07-15T19:58:42.041Z,23.04
2018-07-15T20:01:10.518Z,22.98
2018-07-15T20:03:38.773Z,22.92
2018-07-15T20:06:07.216Z,22.85
2018-07-15T20:08:35.563Z,22.80
2018-07-15T20:11:03.923Z,22.74
2018-07-15T20:13:32.274Z,22.69
2018-07-15T20:16:00.639Z,22.65
2018-07-15T20:18:29.138Z,22.61
2018-07-15T20:20:57.492Z,22.55
2018-07-15T20:23:25.956Z,22.50
2018-07-15T20:25:54.269Z,22.45
2018-07-15T20:28:22.623Z,22.39
2018-07-15T20:30:50.926Z,22.35
2018-07-15T20:33:19.252Z,22.31
2018-07-15T20:35:47.930Z,22.27
2018-07-15T20:38:16.337Z,22.22
2018-07-15T20:40:44.748Z,22.18
2018-07-15T20:43:13.362Z,22.14
2018-07-15T20:45:41.800Z,22.11
2018-07-15T20:48:10.209Z,22.06
2018-07-15T20:50:38.701Z,22.02
2018-07-15T20:53:07.065Z,21.97
2018-07-15T20:55:35.436Z,21.92
2018-07-15T20:58:03.825Z,21.86
2018-07-15T21:00:32.197Z,21.82
2018-07-15T21:03:00.615Z,21.78
2018-07-15T21:05:29.054Z,21.74
2018-07-15T21:07:57.434Z,21.69
2018-07-15T21:10:25.808Z,21.59
2018-07-15T21:12:54.646Z,21.47
2018-07-15T21:15:22.990Z,21.36
2018-07-15T21:17:51.416Z,21.25
2018-07-15T21:20:19.806Z,21.19
2018-07-15T21:22:48.140Z,21.17
2018-07-15T21:25:16.523Z,21.17
2018-07-15T21:27:44.847Z,21.16
2018-07-15T21:30:13.191Z,21.15
2018-07-15T21:32:41.548Z,21.08
2018-07-15T21:35:09.848Z,21.06
2018-07-15T21:37:38.186Z,21.03
2018-07-15T21:40:06.522Z,21.02
2018-07-15T21:42:34.966Z,20.99
2018-07-15T21:45:03.326Z,20.98
2018-07-15T21:47:31.654Z,20.96
2018-07-15T21:50:00.112Z,20.93
2018-07-15T21:52:28.610Z,20.90
2018-07-15T21:54:56.988Z,20.88
2018-07-15T21:57:25.334Z,20.87
2018-07-15T21:59:53.684Z,20.85
2018-07-15T22:02:22.002Z,20.83
2018-07-15T22:04:50.404Z,20.81
2018-07-15T22:07:30.017Z,20.80
2018-07-15T22:11:07.147Z,20.78
2018-07-15T22:13:35.465Z,20.76
2018-07-15T22:16:03.918Z,20.74
2018-07-15T22:18:32.214Z,20.73
2018-07-15T22:21:00.589Z,20.71
2018-07-15T22:23:28.925Z,20.69
2018-07-15T22:25:57.315Z,20.64
2018-07-15T22:28:25.660Z,20.60
2018-07-15T22:30:53.946Z,20.55
2018-07-15T22:33:22.250Z,20.49
2018-07-15T22:35:50.671Z,20.45
2018-07-15T22:38:19.041Z,20.44
2018-07-15T22:40:47.415Z,20.41
2018-07-15T22:43:15.740Z,20.39
2018-07-15T22:45:44.035Z,20.37
2018-07-15T22:48:12.469Z,20.35
2018-07-15T22:50:40.820Z,20.33
2018-07-15T22:53:09.136Z,20.30
2018-07-15T22:55:37.421Z,20.29
2018-07-15T22:58:06.024Z,20.25
2018-07-15T23:00:34.354Z,20.18
2018-07-15T23:03:02.694Z,20.04
2018-07-15T23:05:45.717Z,19.90
2018-07-15T23:08:14.168Z,19.79
2018-07-15T23:10:42.534Z,19.78
2018-07-15T23:13:11.561Z,19.77
2018-07-15T23:15:40.235Z,19.75
2018-07-15T23:18:08.688Z,19.75
2018-07-15T23:20:37.891Z,19.73
2018-07-15T23:23:07.120Z,19.74
2018-07-15T23:25:35.611Z,19.70
2018-07-15T23:28:04.620Z,19.64
2018-07-15T23:30:33.772Z,19.59
2018-07-15T23:33:02.478Z,19.56
2018-07-15T23:35:30.926Z,19.57
2018-07-15T23:37:59.293Z,19.58
2018-07-15T23:40:27.632Z,19.58
2018-07-15T23:42:56.828Z,19.54
2018-07-15T23:45:25.924Z,19.53
2018-07-15T23:47:54.689Z,19.51
2018-07-15T23:50:23.132Z,19.46
2018-07-15T23:52:51.616Z,19.42
2018-07-15T23:55:20.021Z,19.38
2018-07-15T23:57:48.494Z,19.35
